sensor_id;sensor_type;location;lat;lon;timestamp;pressure;altitude;pressure_sealevel;temperature;humidity
74403;BME280;62837;51.082;13.744;2024-01-10T00:01:33;102114.73;;;-8.92;66.83
74403;BME280;62837;51.082;13.744;2024-01-10T00:04:04;102115.27;;;-8.95;66.69
74403;BME280;62837;51.082;13.744;2024-01-10T00:06:35;102113.77;;;-8.97;67.03
74403;BME280;62837;51.082;13.744;2024-01-10T00:09:06;102109.18;;;-8.97;67.05
74403;BME280;62837;51.082;13.744;2024-01-10T00:11:37;102111.54;;;-8.98;66.91
74403;BME280;62837;51.082;13.744;2024-01-10T00:14:09;102109.35;;;-8.91;71.68
74403;BME280;62837;51.082;13.744;2024-01-10T00:16:40;102104.85;;;-8.85;70.62
74403;BME280;62837;51.082;13.744;2024-01-10T00:19:11;102102.77;;;-9.00;68.53
74403;BME280;62837;51.082;13.744;2024-01-10T00:21:41;102104.69;;;-9.11;68.03
74403;BME280;62837;51.082;13.744;2024-01-10T00:24:12;102101.53;;;-9.18;68.19
74403;BME280;62837;51.082;13.744;2024-01-10T00:26:43;102104.31;;;-9.21;68.09
74403;BME280;62837;51.082;13.744;2024-01-10T00:29:14;102103.16;;;-9.22;68.02
74403;BME280;62837;51.082;13.744;2024-01-10T00:31:45;102100.65;;;-9.24;67.85
74403;BME280;62837;51.082;13.744;2024-01-10T00:34:16;102101.45;;;-9.23;67.59
74403;BME280;62837;51.082;13.744;2024-01-10T00:36:47;102101.41;;;-9.22;67.52
74403;BME280;62837;51.082;13.744;2024-01-10T00:39:18;102100.27;;;-9.27;67.28
74403;BME280;62837;51.082;13.744;2024-01-10T00:41:49;102102.99;;;-9.31;67.69
74403;BME280;62837;51.082;13.744;2024-01-10T00:44:19;102105.64;;;-9.30;67.88
74403;BME280;62837;51.082;13.744;2024-01-10T00:46:50;102099.54;;;-9.26;67.61
74403;BME280;62837;51.082;13.744;2024-01-10T00:49:22;102099.26;;;-9.28;67.23
74403;BME280;62837;51.082;13.744;2024-01-10T00:51:52;102100.27;;;-9.30;67.26
74403;BME280;62837;51.082;13.744;2024-01-10T00:54:23;102099.92;;;-9.30;67.22
74403;BME280;62837;51.082;13.744;2024-01-10T00:56:54;102099.91;;;-9.32;67.16
74403;BME280;62837;51.082;13.744;2024-01-10T00:59:25;102099.73;;;-9.32;67.33
74403;BME280;62837;51.082;13.744;2024-01-10T01:01:56;102098.98;;;-9.35;67.32
74403;BME280;62837;51.082;13.744;2024-01-10T01:04:26;102100.82;;;-9.39;67.35
74403;BME280;62837;51.082;13.744;2024-01-10T01:06:57;102097.80;;;-9.42;67.70
74403;BME280;62837;51.082;13.744;2024-01-10T01:09:28;102095.09;;;-9.41;67.88
74403;BME280;62837;51.082;13.744;2024-01-10T01:11:59;102095.17;;;-9.40;68.16
74403;BME280;62837;51.082;13.744;2024-01-10T01:14:30;102096.25;;;-9.37;67.99
74403;BME280;62837;51.082;13.744;2024-01-10T01:17:01;102096.69;;;-9.36;67.79
74403;BME280;62837;51.082;13.744;2024-01-10T01:19:32;102097.86;;;-9.34;67.56
74403;BME280;62837;51.082;13.744;2024-01-10T01:22:04;102098.88;;;-9.33;67.66
74403;BME280;62837;51.082;13.744;2024-01-10T01:24:34;102097.67;;;-9.34;67.47
74403;BME280;62837;51.082;13.744;2024-01-10T01:27:05;102101.98;;;-9.35;67.58
74403;BME280;62837;51.082;13.744;2024-01-10T01:29:36;102106.08;;;-9.35;67.67
74403;BME280;62837;51.082;13.744;2024-01-10T01:32:07;102101.33;;;-9.35;67.44
74403;BME280;62837;51.082;13.744;2024-01-10T01:34:38;102100.84;;;-9.36;67.42
74403;BME280;62837;51.082;13.744;2024-01-10T01:37:09;102102.40;;;-9.39;67.40
74403;BME280;62837;51.082;13.744;2024-01-10T01:39:40;102105.30;;;-9.40;67.34
74403;BME280;62837;51.082;13.744;2024-01-10T01:42:11;102103.63;;;-9.42;67.45
74403;BME280;62837;51.082;13.744;2024-01-10T01:44:41;102098.54;;;-9.42;67.16
74403;BME280;62837;51.082;13.744;2024-01-10T01:47:12;102097.96;;;-9.45;67.18
74403;BME280;62837;51.082;13.744;2024-01-10T01:49:44;102095.77;;;-9.49;67.53
74403;BME280;62837;51.082;13.744;2024-01-10T01:52:15;102095.25;;;-9.62;67.44
74403;BME280;62837;51.082;13.744;2024-01-10T01:54:46;102096.41;;;-9.73;67.94
74403;BME280;62837;51.082;13.744;2024-01-10T01:57:18;102098.09;;;-9.74;68.25
74403;BME280;62837;51.082;13.744;2024-01-10T01:59:49;102092.30;;;-9.72;68.40
74403;BME280;62837;51.082;13.744;2024-01-10T02:02:21;102092.04;;;-9.71;68.58
74403;BME280;62837;51.082;13.744;2024-01-10T02:04:52;102092.16;;;-9.64;68.69
74403;BME280;62837;51.082;13.744;2024-01-10T02:07:23;102085.77;;;-9.57;68.25
74403;BME280;62837;51.082;13.744;2024-01-10T02:09:55;102089.92;;;-9.53;68.15
74403;BME280;62837;51.082;13.744;2024-01-10T02:12:27;102093.23;;;-9.49;68.26
74403;BME280;62837;51.082;13.744;2024-01-10T02:14:58;102089.39;;;-9.50;68.00
74403;BME280;62837;51.082;13.744;2024-01-10T02:17:29;102087.21;;;-9.52;67.82
74403;BME280;62837;51.082;13.744;2024-01-10T02:20:11;102085.96;;;-9.55;67.99
74403;BME280;62837;51.082;13.744;2024-01-10T02:22:42;102089.65;;;-9.57;68.20
74403;BME280;62837;51.082;13.744;2024-01-10T02:25:13;102089.31;;;-9.57;67.74
74403;BME280;62837;51.082;13.744;2024-01-10T02:27:44;102084.02;;;-9.61;67.80
74403;BME280;62837;51.082;13.744;2024-01-10T02:30:15;102081.10;;;-9.66;67.97
74403;BME280;62837;51.082;13.744;2024-01-10T02:32:46;102079.52;;;-9.69;67.76
74403;BME280;62837;51.082;13.744;2024-01-10T02:35:17;102084.54;;;-9.70;67.67
74403;BME280;62837;51.082;13.744;2024-01-10T02:37:48;102078.55;;;-9.68;67.70
74403;BME280;62837;51.082;13.744;2024-01-10T02:40:21;102078.98;;;-9.66;67.51
74403;BME280;62837;51.082;13.744;2024-01-10T02:42:52;102075.69;;;-9.65;67.54
74403;BME280;62837;51.082;13.744;2024-01-10T02:45:23;102075.66;;;-9.64;67.32
74403;BME280;62837;51.082;13.744;2024-01-10T02:47:54;102075.58;;;-9.66;67.37
74403;BME280;62837;51.082;13.744;2024-01-10T02:50:25;102073.70;;;-9.67;67.67
74403;BME280;62837;51.082;13.744;2024-01-10T02:52:55;102069.29;;;-9.64;67.74
74403;BME280;62837;51.082;13.744;2024-01-10T02:55:26;102074.99;;;-9.65;67.38
74403;BME280;62837;51.082;13.744;2024-01-10T02:57:57;102071.36;;;-9.63;67.61
74403;BME280;62837;51.082;13.744;2024-01-10T03:00:28;102073.73;;;-9.62;67.43
74403;BME280;62837;51.082;13.744;2024-01-10T03:02:59;102067.36;;;-9.62;67.39
74403;BME280;62837;51.082;13.744;2024-01-10T03:05:30;102065.84;;;-9.63;67.37
74403;BME280;62837;51.082;13.744;2024-01-10T03:08:01;102064.70;;;-9.65;67.52
74403;BME280;62837;51.082;13.744;2024-01-10T03:10:33;102064.44;;;-9.66;67.50
74403;BME280;62837;51.082;13.744;2024-01-10T03:13:05;102064.62;;;-9.67;67.37
74403;BME280;62837;51.082;13.744;2024-01-10T03:15:36;102066.05;;;-9.67;67.18
74403;BME280;62837;51.082;13.744;2024-01-10T03:18:07;102070.48;;;-9.66;67.21
74403;BME280;62837;51.082;13.744;2024-01-10T03:20:38;102065.99;;;-9.66;66.95
74403;BME280;62837;51.082;13.744;2024-01-10T03:23:09;102062.34;;;-9.67;67.11
74403;BME280;62837;51.082;13.744;2024-01-10T03:25:40;102063.15;;;-9.66;67.15
74403;BME280;62837;51.082;13.744;2024-01-10T03:28:11;102061.58;;;-9.66;66.81
74403;BME280;62837;51.082;13.744;2024-01-10T03:30:45;102059.81;;;-9.72;66.83
74403;BME280;62837;51.082;13.744;2024-01-10T03:33:16;102059.59;;;-9.78;66.93
74403;BME280;62837;51.082;13.744;2024-01-10T03:35:47;102056.00;;;-9.80;67.17
74403;BME280;62837;51.082;13.744;2024-01-10T03:38:18;102055.97;;;-9.79;67.00
74403;BME280;62837;51.082;13.744;2024-01-10T03:40:49;102045.98;;;-9.78;66.92
74403;BME280;62837;51.082;13.744;2024-01-10T03:43:20;102042.64;;;-9.79;66.50
74403;BME280;62837;51.082;13.744;2024-01-10T03:45:51;102042.95;;;-9.84;66.54
74403;BME280;62837;51.082;13.744;2024-01-10T03:48:23;102040.41;;;-9.89;66.57
74403;BME280;62837;51.082;13.744;2024-01-10T03:50:54;102039.55;;;-9.96;66.88
74403;BME280;62837;51.082;13.744;2024-01-10T03:53:26;102042.83;;;-10.01;67.31
74403;BME280;62837;51.082;13.744;2024-01-10T03:55:57;102043.28;;;-10.05;67.71
74403;BME280;62837;51.082;13.744;2024-01-10T03:58:28;102040.85;;;-10.13;66.99
74403;BME280;62837;51.082;13.744;2024-01-10T04:00:58;102039.09;;;-10.22;67.34
74403;BME280;62837;51.082;13.744;2024-01-10T04:03:29;102036.69;;;-10.26;67.65
74403;BME280;62837;51.082;13.744;2024-01-10T04:06:00;102034.16;;;-10.32;67.68
74403;BME280;62837;51.082;13.744;2024-01-10T04:08:32;102036.91;;;-10.39;67.69
74403;BME280;62837;51.082;13.744;2024-01-10T04:11:03;102036.74;;;-10.46;67.69
74403;BME280;62837;51.082;13.744;2024-01-10T04:13:34;102032.24;;;-10.45;68.19
74403;BME280;62837;51.082;13.744;2024-01-10T04:16:07;102032.02;;;-10.38;67.80
74403;BME280;62837;51.082;13.744;2024-01-10T04:18:38;102028.64;;;-10.34;67.39
74403;BME280;62837;51.082;13.744;2024-01-10T04:21:09;102031.52;;;-10.35;67.37
74403;BME280;62837;51.082;13.744;2024-01-10T04:23:41;102033.33;;;-10.32;68.13
74403;BME280;62837;51.082;13.744;2024-01-10T04:26:12;102031.50;;;-10.31;67.60
74403;BME280;62837;51.082;13.744;2024-01-10T04:28:43;102036.14;;;-10.38;67.73
74403;BME280;62837;51.082;13.744;2024-01-10T04:31:13;102035.65;;;-10.42;68.29
74403;BME280;62837;51.082;13.744;2024-01-10T04:33:44;102035.18;;;-10.43;68.13
74403;BME280;62837;51.082;13.744;2024-01-10T04:36:15;102033.59;;;-10.40;68.21
74403;BME280;62837;51.082;13.744;2024-01-10T04:38:46;102037.20;;;-10.35;68.04
74403;BME280;62837;51.082;13.744;2024-01-10T04:41:17;102038.88;;;-10.31;67.87
74403;BME280;62837;51.082;13.744;2024-01-10T04:43:48;102038.34;;;-10.30;68.14
74403;BME280;62837;51.082;13.744;2024-01-10T04:46:19;102044.43;;;-10.28;68.24
74403;BME280;62837;51.082;13.744;2024-01-10T04:48:50;102047.91;;;-10.33;68.74
74403;BME280;62837;51.082;13.744;2024-01-10T04:51:22;102051.33;;;-10.31;68.78
74403;BME280;62837;51.082;13.744;2024-01-10T04:53:53;102044.30;;;-10.29;68.90
74403;BME280;62837;51.082;13.744;2024-01-10T04:56:25;102043.16;;;-10.27;68.67
74403;BME280;62837;51.082;13.744;2024-01-10T04:58:56;102038.45;;;-10.26;69.21
74403;BME280;62837;51.082;13.744;2024-01-10T05:01:27;102037.97;;;-10.21;68.94
74403;BME280;62837;51.082;13.744;2024-01-10T05:03:58;102040.44;;;-10.17;68.89
74403;BME280;62837;51.082;13.744;2024-01-10T05:06:29;102044.30;;;-10.17;68.76
74403;BME280;62837;51.082;13.744;2024-01-10T05:09:00;102046.97;;;-10.11;68.71
74403;BME280;62837;51.082;13.744;2024-01-10T05:11:31;102040.73;;;-10.08;68.40
74403;BME280;62837;51.082;13.744;2024-01-10T05:14:04;102041.99;;;-10.08;68.70
74403;BME280;62837;51.082;13.744;2024-01-10T05:16:35;102044.88;;;-10.12;69.99
74403;BME280;62837;51.082;13.744;2024-01-10T05:19:06;102043.61;;;-10.14;71.17
74403;BME280;62837;51.082;13.744;2024-01-10T05:21:37;102044.85;;;-10.11;71.79
74403;BME280;62837;51.082;13.744;2024-01-10T05:24:08;102045.00;;;-10.14;71.02
74403;BME280;62837;51.082;13.744;2024-01-10T05:26:39;102044.60;;;-10.19;70.46
74403;BME280;62837;51.082;13.744;2024-01-10T05:29:10;102042.48;;;-10.19;70.26
74403;BME280;62837;51.082;13.744;2024-01-10T05:31:41;102042.95;;;-10.15;70.16
74403;BME280;62837;51.082;13.744;2024-01-10T05:34:12;102045.32;;;-10.10;69.61
74403;BME280;62837;51.082;13.744;2024-01-10T05:36:43;102045.48;;;-10.07;69.72
74403;BME280;62837;51.082;13.744;2024-01-10T05:39:14;102043.67;;;-10.03;69.54
74403;BME280;62837;51.082;13.744;2024-01-10T05:41:46;102047.21;;;-10.00;69.14
74403;BME280;62837;51.082;13.744;2024-01-10T05:44:17;102048.39;;;-10.02;69.32
74403;BME280;62837;51.082;13.744;2024-01-10T05:46:48;102046.72;;;-10.01;69.13
74403;BME280;62837;51.082;13.744;2024-01-10T05:49:19;102045.41;;;-9.99;68.97
74403;BME280;62837;51.082;13.744;2024-01-10T05:51:51;102045.82;;;-10.00;68.83
74403;BME280;62837;51.082;13.744;2024-01-10T05:54:22;102044.55;;;-10.00;69.11
74403;BME280;62837;51.082;13.744;2024-01-10T05:56:53;102045.53;;;-9.98;69.16
74403;BME280;62837;51.082;13.744;2024-01-10T05:59:24;102043.98;;;-9.99;68.89
74403;BME280;62837;51.082;13.744;2024-01-10T06:01:58;102046.77;;;-9.98;69.03
74403;BME280;62837;51.082;13.744;2024-01-10T06:04:29;102042.90;;;-9.96;68.87
74403;BME280;62837;51.082;13.744;2024-01-10T06:07:01;102044.55;;;-9.93;68.60
74403;BME280;62837;51.082;13.744;2024-01-10T06:09:33;102045.08;;;-9.93;68.90
74403;BME280;62837;51.082;13.744;2024-01-10T06:12:06;102047.69;;;-9.92;68.70
74403;BME280;62837;51.082;13.744;2024-01-10T06:14:37;102049.14;;;-9.93;68.60
74403;BME280;62837;51.082;13.744;2024-01-10T06:17:08;102049.48;;;-9.96;68.51
74403;BME280;62837;51.082;13.744;2024-01-10T06:19:39;102045.46;;;-9.96;68.68
74403;BME280;62837;51.082;13.744;2024-01-10T06:22:10;102048.50;;;-9.97;68.94
74403;BME280;62837;51.082;13.744;2024-01-10T06:24:41;102053.71;;;-9.92;70.25
74403;BME280;62837;51.082;13.744;2024-01-10T06:27:13;102050.63;;;-9.76;72.40
74403;BME280;62837;51.082;13.744;2024-01-10T06:29:44;102046.28;;;-9.59;72.12
74403;BME280;62837;51.082;13.744;2024-01-10T06:32:14;102046.11;;;-9.50;70.43
74403;BME280;62837;51.082;13.744;2024-01-10T06:34:46;102044.80;;;-9.52;69.41
74403;BME280;62837;51.082;13.744;2024-01-10T06:37:17;102042.21;;;-9.53;69.01
74403;BME280;62837;51.082;13.744;2024-01-10T06:39:48;102046.25;;;-9.52;68.56
74403;BME280;62837;51.082;13.744;2024-01-10T06:42:19;102051.64;;;-9.54;68.34
74403;BME280;62837;51.082;13.744;2024-01-10T06:44:50;102048.89;;;-9.55;68.17
74403;BME280;62837;51.082;13.744;2024-01-10T06:47:21;102044.37;;;-9.45;72.77
74403;BME280;62837;51.082;13.744;2024-01-10T06:49:52;102028.59;;;-7.36;92.14
74403;BME280;62837;51.082;13.744;2024-01-10T06:52:23;102034.00;;;-6.08;94.68
74403;BME280;62837;51.082;13.744;2024-01-10T06:54:54;102037.61;;;-6.21;82.45
74403;BME280;62837;51.082;13.744;2024-01-10T06:57:25;102035.86;;;-6.78;73.21
74403;BME280;62837;51.082;13.744;2024-01-10T06:59:56;102038.34;;;-7.26;70.71
74403;BME280;62837;51.082;13.744;2024-01-10T07:02:28;102041.09;;;-7.67;69.25
74403;BME280;62837;51.082;13.744;2024-01-10T07:04:59;102047.21;;;-7.95;68.40
74403;BME280;62837;51.082;13.744;2024-01-10T07:07:30;102050.04;;;-8.19;67.95
74403;BME280;62837;51.082;13.744;2024-01-10T07:10:01;102046.06;;;-8.48;67.30
74403;BME280;62837;51.082;13.744;2024-01-10T07:12:34;102047.47;;;-8.65;67.30
74403;BME280;62837;51.082;13.744;2024-01-10T07:15:07;102045.99;;;-8.78;67.40
74403;BME280;62837;51.082;13.744;2024-01-10T07:17:39;102045.31;;;-8.93;67.16
74403;BME280;62837;51.082;13.744;2024-01-10T07:20:12;102045.40;;;-9.06;67.57
74403;BME280;62837;51.082;13.744;2024-01-10T07:22:43;102043.00;;;-9.19;67.20
74403;BME280;62837;51.082;13.744;2024-01-10T07:25:15;102041.48;;;-9.38;67.09
74403;BME280;62837;51.082;13.744;2024-01-10T07:27:46;102049.10;;;-9.53;67.43
74403;BME280;62837;51.082;13.744;2024-01-10T07:30:17;102046.98;;;-9.68;67.92
74403;BME280;62837;51.082;13.744;2024-01-10T07:32:48;102044.08;;;-9.79;68.24
74403;BME280;62837;51.082;13.744;2024-01-10T07:35:20;102044.22;;;-9.91;68.27
74403;BME280;62837;51.082;13.744;2024-01-10T07:37:51;102044.58;;;-9.97;68.46
74403;BME280;62837;51.082;13.744;2024-01-10T07:40:22;102048.17;;;-10.01;68.87
74403;BME280;62837;51.082;13.744;2024-01-10T07:42:53;102050.05;;;-9.96;69.06
74403;BME280;62837;51.082;13.744;2024-01-10T07:45:25;102047.45;;;-9.79;69.62
74403;BME280;62837;51.082;13.744;2024-01-10T07:47:56;102049.20;;;-9.55;69.34
74403;BME280;62837;51.082;13.744;2024-01-10T07:50:27;102052.65;;;-9.29;69.41
74403;BME280;62837;51.082;13.744;2024-01-10T07:52:58;102050.70;;;-9.02;69.32
74403;BME280;62837;51.082;13.744;2024-01-10T07:55:31;102047.93;;;-8.78;69.20
74403;BME280;62837;51.082;13.744;2024-01-10T07:58:02;102042.20;;;-8.52;70.52
74403;BME280;62837;51.082;13.744;2024-01-10T08:00:35;102044.88;;;-8.17;70.07
74403;BME280;62837;51.082;13.744;2024-01-10T08:03:06;102044.58;;;-7.93;68.80
74403;BME280;62837;51.082;13.744;2024-01-10T08:05:37;102045.30;;;-7.71;68.40
74403;BME280;62837;51.082;13.744;2024-01-10T08:08:08;102044.05;;;-7.45;70.92
74403;BME280;62837;51.082;13.744;2024-01-10T08:10:42;102037.61;;;-6.38;83.80
74403;BME280;62837;51.082;13.744;2024-01-10T08:13:13;102030.27;;;-6.10;73.53
74403;BME280;62837;51.082;13.744;2024-01-10T08:15:44;102028.03;;;-6.02;69.56
74403;BME280;62837;51.082;13.744;2024-01-10T08:18:15;102023.44;;;-5.93;68.40
74403;BME280;62837;51.082;13.744;2024-01-10T08:20:46;102020.34;;;-5.81;67.58
74403;BME280;62837;51.082;13.744;2024-01-10T08:23:18;102021.39;;;-5.71;66.52
74403;BME280;62837;51.082;13.744;2024-01-10T08:25:50;102017.99;;;-5.61;66.12
74403;BME280;62837;51.082;13.744;2024-01-10T08:28:21;102016.04;;;-5.47;65.98
74403;BME280;62837;51.082;13.744;2024-01-10T08:30:52;102008.09;;;-5.30;65.78
74403;BME280;62837;51.082;13.744;2024-01-10T08:33:33;102008.58;;;-5.09;65.69
74403;BME280;62837;51.082;13.744;2024-01-10T08:36:05;102011.98;;;-4.93;64.98
74403;BME280;62837;51.082;13.744;2024-01-10T08:38:36;102009.06;;;-4.83;64.10
74403;BME280;62837;51.082;13.744;2024-01-10T08:41:08;102005.98;;;-4.83;63.54
74403;BME280;62837;51.082;13.744;2024-01-10T08:43:41;102006.98;;;-4.86;64.23
74403;BME280;62837;51.082;13.744;2024-01-10T08:46:12;102006.58;;;-4.84;66.68
74403;BME280;62837;51.082;13.744;2024-01-10T08:48:44;102004.86;;;-4.64;66.79
74403;BME280;62837;51.082;13.744;2024-01-10T08:51:17;102010.67;;;-4.40;67.15
74403;BME280;62837;51.082;13.744;2024-01-10T08:53:48;102007.05;;;-4.16;66.73
74403;BME280;62837;51.082;13.744;2024-01-10T08:56:19;102007.33;;;-3.91;66.08
74403;BME280;62837;51.082;13.744;2024-01-10T08:58:50;102003.13;;;-3.68;66.33
74403;BME280;62837;51.082;13.744;2024-01-10T09:01:21;101999.09;;;-3.48;65.82
74403;BME280;62837;51.082;13.744;2024-01-10T09:03:53;101998.38;;;-3.36;65.22
74403;BME280;62837;51.082;13.744;2024-01-10T09:06:24;101996.76;;;-3.25;64.62
74403;BME280;62837;51.082;13.744;2024-01-10T09:08:56;101994.83;;;-3.13;64.58
74403;BME280;62837;51.082;13.744;2024-01-10T09:11:26;102000.38;;;-2.99;64.09
74403;BME280;62837;51.082;13.744;2024-01-10T09:13:57;102000.73;;;-2.88;63.30
74403;BME280;62837;51.082;13.744;2024-01-10T09:16:29;102000.11;;;-2.83;63.24
74403;BME280;62837;51.082;13.744;2024-01-10T09:18:59;101995.15;;;-2.74;62.98
74403;BME280;62837;51.082;13.744;2024-01-10T09:21:30;101996.99;;;-2.62;62.55
74403;BME280;62837;51.082;13.744;2024-01-10T09:24:01;102000.66;;;-2.57;61.51
74403;BME280;62837;51.082;13.744;2024-01-10T09:26:50;101999.95;;;-2.59;61.19
74403;BME280;62837;51.082;13.744;2024-01-10T09:29:21;101997.73;;;-2.58;61.94
74403;BME280;62837;51.082;13.744;2024-01-10T09:31:52;101998.79;;;-2.54;61.19
74403;BME280;62837;51.082;13.744;2024-01-10T09:34:24;101995.11;;;-2.45;61.73
74403;BME280;62837;51.082;13.744;2024-01-10T09:36:55;101992.88;;;-2.38;61.96
74403;BME280;62837;51.082;13.744;2024-01-10T09:39:26;101991.85;;;-2.39;60.90
74403;BME280;62837;51.082;13.744;2024-01-10T09:41:59;101990.55;;;-2.40;61.55
74403;BME280;62837;51.082;13.744;2024-01-10T09:44:34;101991.27;;;-2.40;61.42
74403;BME280;62837;51.082;13.744;2024-01-10T09:47:05;101983.96;;;-2.43;60.59
74403;BME280;62837;51.082;13.744;2024-01-10T09:49:36;101978.92;;;-2.37;60.22
74403;BME280;62837;51.082;13.744;2024-01-10T09:52:13;101976.48;;;-2.34;60.41
74403;BME280;62837;51.082;13.744;2024-01-10T09:54:49;101970.64;;;-2.31;60.35
74403;BME280;62837;51.082;13.744;2024-01-10T09:57:24;101968.59;;;-2.28;60.81
74403;BME280;62837;51.082;13.744;2024-01-10T09:59:55;101965.10;;;-2.19;60.84
74403;BME280;62837;51.082;13.744;2024-01-10T10:02:27;101961.56;;;-2.09;60.54
74403;BME280;62837;51.082;13.744;2024-01-10T10:05:07;101961.36;;;-2.03;60.22
74403;BME280;62837;51.082;13.744;2024-01-10T10:07:46;101958.24;;;-2.03;59.56
74403;BME280;62837;51.082;13.744;2024-01-10T10:10:19;101958.38;;;-1.96;60.02
74403;BME280;62837;51.082;13.744;2024-01-10T10:12:53;101956.07;;;-1.89;59.88
74403;BME280;62837;51.082;13.744;2024-01-10T10:15:25;101954.44;;;-1.83;59.59
74403;BME280;62837;51.082;13.744;2024-01-10T10:17:56;101952.20;;;-1.78;59.37
74403;BME280;62837;51.082;13.744;2024-01-10T10:20:29;101950.09;;;-1.71;59.23
74403;BME280;62837;51.082;13.744;2024-01-10T10:23:03;101959.00;;;-1.72;58.27
74403;BME280;62837;51.082;13.744;2024-01-10T10:25:36;101952.97;;;-1.79;58.45
74403;BME280;62837;51.082;13.744;2024-01-10T10:28:07;101951.25;;;-1.78;59.21
74403;BME280;62837;51.082;13.744;2024-01-10T10:30:49;101948.08;;;-1.71;59.66
74403;BME280;62837;51.082;13.744;2024-01-10T10:33:22;101949.75;;;-1.67;59.03
74403;BME280;62837;51.082;13.744;2024-01-10T10:35:53;101948.50;;;-1.64;58.90
74403;BME280;62837;51.082;13.744;2024-01-10T10:38:26;101947.52;;;-1.64;58.74
74403;BME280;62837;51.082;13.744;2024-01-10T10:40:59;101941.23;;;-1.61;59.28
74403;BME280;62837;51.082;13.744;2024-01-10T10:43:31;101942.20;;;-1.58;59.22
74403;BME280;62837;51.082;13.744;2024-01-10T10:46:06;101943.14;;;-1.56;59.14
74403;BME280;62837;51.082;13.744;2024-01-10T10:48:38;101936.61;;;-1.57;58.45
74403;BME280;62837;51.082;13.744;2024-01-10T10:51:11;101939.34;;;-1.63;58.02
74403;BME280;62837;51.082;13.744;2024-01-10T10:53:47;101939.16;;;-1.67;59.02
74403;BME280;62837;51.082;13.744;2024-01-10T10:56:18;101943.00;;;-1.66;58.20
74403;BME280;62837;51.082;13.744;2024-01-10T10:58:50;101939.81;;;-1.71;57.85
74403;BME280;62837;51.082;13.744;2024-01-10T11:01:21;101939.33;;;-1.77;57.92
74403;BME280;62837;51.082;13.744;2024-01-10T11:03:53;101940.84;;;-1.76;58.54
74403;BME280;62837;51.082;13.744;2024-01-10T11:06:28;101934.88;;;-1.69;58.89
74403;BME280;62837;51.082;13.744;2024-01-10T11:09:03;101936.44;;;-1.67;58.39
74403;BME280;62837;51.082;13.744;2024-01-10T11:11:44;101935.73;;;-1.63;60.94
74403;BME280;62837;51.082;13.744;2024-01-10T11:14:28;101933.05;;;-1.47;61.45
74403;BME280;62837;51.082;13.744;2024-01-10T11:17:33;101925.39;;;-1.38;59.33
74403;BME280;62837;51.082;13.744;2024-01-10T11:20:32;101924.98;;;-1.35;58.31
74403;BME280;62837;51.082;13.744;2024-01-10T11:23:20;101919.29;;;-1.34;58.57
74403;BME280;62837;51.082;13.744;2024-01-10T11:25:54;101916.86;;;-1.27;58.81
74403;BME280;62837;51.082;13.744;2024-01-10T11:28:30;101914.07;;;-1.23;58.80
74403;BME280;62837;51.082;13.744;2024-01-10T11:31:01;101908.71;;;-1.16;58.39
74403;BME280;62837;51.082;13.744;2024-01-10T11:33:34;101909.35;;;-1.11;58.08
74403;BME280;62837;51.082;13.744;2024-01-10T11:36:11;101907.33;;;-1.09;57.53
74403;BME280;62837;51.082;13.744;2024-01-10T11:38:49;101905.65;;;-1.06;57.45
74403;BME280;62837;51.082;13.744;2024-01-10T11:41:25;101902.14;;;-1.04;57.71
74403;BME280;62837;51.082;13.744;2024-01-10T11:44:28;101896.42;;;-0.98;58.44
74403;BME280;62837;51.082;13.744;2024-01-10T11:47:00;101895.98;;;-0.91;58.56
74403;BME280;62837;51.082;13.744;2024-01-10T11:49:31;101896.05;;;-0.85;57.96
74403;BME280;62837;51.082;13.744;2024-01-10T11:52:02;101894.58;;;-0.79;58.49
74403;BME280;62837;51.082;13.744;2024-01-10T11:54:43;101895.73;;;-0.75;58.32
74403;BME280;62837;51.082;13.744;2024-01-10T11:57:18;101888.52;;;-0.69;57.75
74403;BME280;62837;51.082;13.744;2024-01-10T11:59:52;101880.33;;;-0.68;57.05
74403;BME280;62837;51.082;13.744;2024-01-10T12:02:24;101879.70;;;-0.67;56.99
74403;BME280;62837;51.082;13.744;2024-01-10T12:04:56;101879.87;;;-0.64;57.23
74403;BME280;62837;51.082;13.744;2024-01-10T12:07:27;101880.17;;;-0.60;57.79
74403;BME280;62837;51.082;13.744;2024-01-10T12:09:58;101877.16;;;-0.56;57.82
74403;BME280;62837;51.082;13.744;2024-01-10T12:12:30;101883.02;;;-0.52;57.23
74403;BME280;62837;51.082;13.744;2024-01-10T12:15:00;101879.22;;;-0.50;56.41
74403;BME280;62837;51.082;13.744;2024-01-10T12:17:37;101876.80;;;-0.47;56.45
74403;BME280;62837;51.082;13.744;2024-01-10T12:20:09;101874.21;;;-0.45;56.81
74403;BME280;62837;51.082;13.744;2024-01-10T12:22:40;101875.98;;;-0.40;56.01
74403;BME280;62837;51.082;13.744;2024-01-10T12:25:15;101880.31;;;-0.37;57.39
74403;BME280;62837;51.082;13.744;2024-01-10T12:27:48;101881.81;;;-0.32;57.69
74403;BME280;62837;51.082;13.744;2024-01-10T12:30:19;101882.13;;;-0.28;57.28
74403;BME280;62837;51.082;13.744;2024-01-10T12:32:53;101878.39;;;-0.25;56.99
74403;BME280;62837;51.082;13.744;2024-01-10T12:35:22;101870.89;;;-0.22;56.94
74403;BME280;62837;51.082;13.744;2024-01-10T12:37:57;101866.73;;;-0.22;56.69
74403;BME280;62837;51.082;13.744;2024-01-10T12:40:28;101862.11;;;-0.18;60.03
74403;BME280;62837;51.082;13.744;2024-01-10T12:43:04;101862.09;;;-0.10;59.52
74403;BME280;62837;51.082;13.744;2024-01-10T12:45:37;101862.69;;;-0.05;58.30
74403;BME280;62837;51.082;13.744;2024-01-10T12:48:08;101857.26;;;-0.03;57.15
74403;BME280;62837;51.082;13.744;2024-01-10T12:50:43;101855.80;;;-0.02;56.94
74403;BME280;62837;51.082;13.744;2024-01-10T12:53:14;101851.27;;;-0.01;55.92
74403;BME280;62837;51.082;13.744;2024-01-10T12:55:45;101844.84;;;-0.02;55.66
74403;BME280;62837;51.082;13.744;2024-01-10T12:58:16;101845.33;;;-0.01;55.24
74403;BME280;62837;51.082;13.744;2024-01-10T13:00:48;101838.00;;;-0.00;55.30
74403;BME280;62837;51.082;13.744;2024-01-10T13:03:19;101837.21;;;0.00;54.95